sensor_id;sensor_type;location;lat;lon;timestamp;P1;durP1;ratioP1;P2;durP2;ratioP2
46222;SDS011;31943;51.410;7.564;2023-10-13T00:00:12;12.55;;;9.90;;
46222;SDS011;31943;51.410;7.564;2023-10-13T00:02:39;12.70;;;9.60;;
46222;SDS011;31943;51.410;7.564;2023-10-13T00:05:04;8.77;;;7.97;;
46222;SDS011;31943;51.410;7.564;2023-10-13T00:07:32;10.18;;;8.45;;
46222;SDS011;31943;51.410;7.564;2023-10-13T00:09:57;11.88;;;8.68;;
46222;SDS011;31943;51.410;7.564;2023-10-13T00:12:23;11.50;;;8.30;;
46222;SDS011;31943;51.410;7.564;2023-10-13T00:14:48;12.20;;;7.93;;
46222;SDS011;31943;51.410;7.564;2023-10-13T00:17:14;10.50;;;7.85;;
46222;SDS011;31943;51.410;7.564;2023-10-13T00:19:39;11.25;;;7.63;;
46222;SDS011;31943;51.410;7.564;2023-10-13T00:22:06;10.00;;;7.82;;
46222;SDS011;31943;51.410;7.564;2023-10-13T00:24:33;10.50;;;7.53;;
46222;SDS011;31943;51.410;7.564;2023-10-13T00:26:59;9.07;;;7.07;;
46222;SDS011;31943;51.410;7.564;2023-10-13T00:29:26;10.20;;;7.00;;
46222;SDS011;31943;51.410;7.564;2023-10-13T00:31:51;8.50;;;7.25;;
46222;SDS011;31943;51.410;7.564;2023-10-13T00:34:17;9.55;;;6.78;;
46222;SDS011;31943;51.410;7.564;2023-10-13T00:36:43;7.45;;;6.40;;
46222;SDS011;31943;51.410;7.564;2023-10-13T00:39:08;8.80;;;6.65;;
46222;SDS011;31943;51.410;7.564;2023-10-13T00:41:36;6.15;;;5.50;;
46222;SDS011;31943;51.410;7.564;2023-10-13T00:44:02;7.90;;;5.50;;
46222;SDS011;31943;51.410;7.564;2023-10-13T00:46:28;10.35;;;5.35;;
46222;SDS011;31943;51.410;7.564;2023-10-13T00:48:53;9.10;;;5.60;;
46222;SDS011;31943;51.410;7.564;2023-10-13T00:51:19;6.28;;;5.03;;
46222;SDS011;31943;51.410;7.564;2023-10-13T00:53:45;7.00;;;5.38;;
46222;SDS011;31943;51.410;7.564;2023-10-13T00:56:11;5.65;;;4.82;;
46222;SDS011;31943;51.410;7.564;2023-10-13T00:58:38;9.32;;;5.90;;
46222;SDS011;31943;51.410;7.564;2023-10-13T01:01:04;8.68;;;5.28;;
46222;SDS011;31943;51.410;7.564;2023-10-13T01:03:29;8.38;;;5.50;;
46222;SDS011;31943;51.410;7.564;2023-10-13T01:05:55;8.27;;;6.45;;
46222;SDS011;31943;51.410;7.564;2023-10-13T01:08:31;8.45;;;6.32;;
46222;SDS011;31943;51.410;7.564;2023-10-13T01:10:57;8.65;;;6.22;;
46222;SDS011;31943;51.410;7.564;2023-10-13T01:13:23;10.15;;;6.38;;
46222;SDS011;31943;51.410;7.564;2023-10-13T01:15:50;8.95;;;6.25;;
46222;SDS011;31943;51.410;7.564;2023-10-13T01:18:16;10.48;;;6.50;;
46222;SDS011;31943;51.410;7.564;2023-10-13T01:20:42;7.45;;;6.43;;
46222;SDS011;31943;51.410;7.564;2023-10-13T01:23:10;7.45;;;6.20;;
46222;SDS011;31943;51.410;7.564;2023-10-13T01:25:36;9.43;;;6.38;;
46222;SDS011;31943;51.410;7.564;2023-10-13T01:28:02;8.75;;;7.18;;
46222;SDS011;31943;51.410;7.564;2023-10-13T01:30:28;9.48;;;7.03;;
46222;SDS011;31943;51.410;7.564;2023-10-13T01:32:53;11.88;;;6.47;;
46222;SDS011;31943;51.410;7.564;2023-10-13T01:35:19;9.90;;;7.03;;
46222;SDS011;31943;51.410;7.564;2023-10-13T01:37:45;8.63;;;6.40;;
46222;SDS011;31943;51.410;7.564;2023-10-13T01:40:13;10.10;;;6.72;;
46222;SDS011;31943;51.410;7.564;2023-10-13T01:42:39;9.02;;;5.93;;
46222;SDS011;31943;51.410;7.564;2023-10-13T01:45:05;7.63;;;6.57;;
46222;SDS011;31943;51.410;7.564;2023-10-13T01:47:31;6.80;;;5.97;;
46222;SDS011;31943;51.410;7.564;2023-10-13T01:49:57;9.15;;;5.93;;
46222;SDS011;31943;51.410;7.564;2023-10-13T01:52:22;8.60;;;6.00;;
46222;SDS011;31943;51.410;7.564;2023-10-13T01:54:48;9.18;;;6.28;;
46222;SDS011;31943;51.410;7.564;2023-10-13T01:57:15;9.73;;;6.45;;
46222;SDS011;31943;51.410;7.564;2023-10-13T01:59:41;8.32;;;6.13;;
46222;SDS011;31943;51.410;7.564;2023-10-13T02:02:06;9.75;;;6.18;;
46222;SDS011;31943;51.410;7.564;2023-10-13T02:04:32;11.00;;;6.00;;
46222;SDS011;31943;51.410;7.564;2023-10-13T02:06:58;8.52;;;6.32;;
46222;SDS011;31943;51.410;7.564;2023-10-13T02:09:25;6.93;;;6.28;;
46222;SDS011;31943;51.410;7.564;2023-10-13T02:11:51;10.48;;;6.82;;
46222;SDS011;31943;51.410;7.564;2023-10-13T02:14:19;8.47;;;6.40;;
46222;SDS011;31943;51.410;7.564;2023-10-13T02:16:45;8.20;;;6.45;;
46222;SDS011;31943;51.410;7.564;2023-10-13T02:19:11;8.07;;;6.57;;
46222;SDS011;31943;51.410;7.564;2023-10-13T02:21:36;7.72;;;6.15;;
46222;SDS011;31943;51.410;7.564;2023-10-13T02:24:02;12.02;;;6.68;;
46222;SDS011;31943;51.410;7.564;2023-10-13T02:26:29;13.20;;;6.75;;
46222;SDS011;31943;51.410;7.564;2023-10-13T02:28:55;8.82;;;5.70;;
46222;SDS011;31943;51.410;7.564;2023-10-13T02:31:22;7.57;;;5.82;;
46222;SDS011;31943;51.410;7.564;2023-10-13T02:33:48;7.95;;;6.03;;
46222;SDS011;31943;51.410;7.564;2023-10-13T02:36:14;7.38;;;5.85;;
46222;SDS011;31943;51.410;7.564;2023-10-13T02:38:39;7.65;;;6.05;;
46222;SDS011;31943;51.410;7.564;2023-10-13T02:41:11;8.48;;;5.68;;
46222;SDS011;31943;51.410;7.564;2023-10-13T02:43:37;9.57;;;5.82;;
46222;SDS011;31943;51.410;7.564;2023-10-13T02:46:03;7.80;;;5.57;;
46222;SDS011;31943;51.410;7.564;2023-10-13T02:48:31;8.82;;;5.63;;
46222;SDS011;31943;51.410;7.564;2023-10-13T02:50:58;7.38;;;5.50;;
46222;SDS011;31943;51.410;7.564;2023-10-13T02:53:24;7.90;;;5.40;;
46222;SDS011;31943;51.410;7.564;2023-10-13T02:55:50;9.93;;;5.50;;
46222;SDS011;31943;51.410;7.564;2023-10-13T02:58:16;5.80;;;5.20;;
46222;SDS011;31943;51.410;7.564;2023-10-13T03:00:42;8.30;;;5.32;;
46222;SDS011;31943;51.410;7.564;2023-10-13T03:03:08;7.35;;;5.38;;
46222;SDS011;31943;51.410;7.564;2023-10-13T03:05:36;7.93;;;5.53;;
46222;SDS011;31943;51.410;7.564;2023-10-13T03:08:02;8.07;;;5.60;;
46222;SDS011;31943;51.410;7.564;2023-10-13T03:10:28;7.53;;;5.50;;
46222;SDS011;31943;51.410;7.564;2023-10-13T03:12:54;9.10;;;5.75;;
46222;SDS011;31943;51.410;7.564;2023-10-13T03:15:20;11.98;;;5.50;;
46222;SDS011;31943;51.410;7.564;2023-10-13T03:17:45;7.53;;;5.53;;
46222;SDS011;31943;51.410;7.564;2023-10-13T03:20:12;8.40;;;5.32;;
46222;SDS011;31943;51.410;7.564;2023-10-13T03:22:40;9.48;;;5.80;;
46222;SDS011;31943;51.410;7.564;2023-10-13T03:25:05;7.55;;;5.30;;
46222;SDS011;31943;51.410;7.564;2023-10-13T03:27:31;8.60;;;5.40;;
46222;SDS011;31943;51.410;7.564;2023-10-13T03:29:57;8.50;;;5.47;;
46222;SDS011;31943;51.410;7.564;2023-10-13T03:32:23;6.70;;;5.57;;
46222;SDS011;31943;51.410;7.564;2023-10-13T03:34:49;8.65;;;6.28;;
46222;SDS011;31943;51.410;7.564;2023-10-13T03:37:14;6.88;;;5.22;;
46222;SDS011;31943;51.410;7.564;2023-10-13T03:39:42;9.13;;;6.07;;
46222;SDS011;31943;51.410;7.564;2023-10-13T03:42:07;10.50;;;6.55;;
46222;SDS011;31943;51.410;7.564;2023-10-13T03:44:33;11.77;;;6.57;;
46222;SDS011;31943;51.410;7.564;2023-10-13T03:46:58;8.32;;;6.38;;
46222;SDS011;31943;51.410;7.564;2023-10-13T03:49:25;9.43;;;6.07;;
46222;SDS011;31943;51.410;7.564;2023-10-13T03:51:51;9.30;;;5.88;;
46222;SDS011;31943;51.410;7.564;2023-10-13T03:54:16;9.38;;;6.55;;
46222;SDS011;31943;51.410;7.564;2023-10-13T03:56:44;7.35;;;5.53;;
46222;SDS011;31943;51.410;7.564;2023-10-13T03:59:11;7.13;;;5.80;;
46222;SDS011;31943;51.410;7.564;2023-10-13T04:01:37;7.13;;;5.65;;
46222;SDS011;31943;51.410;7.564;2023-10-13T04:04:03;8.82;;;6.18;;
46222;SDS011;31943;51.410;7.564;2023-10-13T04:06:29;7.22;;;5.68;;
46222;SDS011;31943;51.410;7.564;2023-10-13T04:08:54;9.98;;;6.57;;
46222;SDS011;31943;51.410;7.564;2023-10-13T04:11:20;8.60;;;5.93;;
46222;SDS011;31943;51.410;7.564;2023-10-13T04:13:47;8.00;;;5.75;;
46222;SDS011;31943;51.410;7.564;2023-10-13T04:16:12;9.18;;;6.80;;
46222;SDS011;31943;51.410;7.564;2023-10-13T04:18:38;10.15;;;6.80;;
46222;SDS011;31943;51.410;7.564;2023-10-13T04:21:04;8.55;;;6.63;;
46222;SDS011;31943;51.410;7.564;2023-10-13T04:23:29;7.18;;;6.35;;
46222;SDS011;31943;51.410;7.564;2023-10-13T04:25:55;8.25;;;6.43;;
46222;SDS011;31943;51.410;7.564;2023-10-13T04:28:20;7.25;;;5.53;;
46222;SDS011;31943;51.410;7.564;2023-10-13T04:30:48;8.65;;;5.88;;
46222;SDS011;31943;51.410;7.564;2023-10-13T04:33:14;9.77;;;6.30;;
46222;SDS011;31943;51.410;7.564;2023-10-13T04:35:41;8.32;;;6.05;;
46222;SDS011;31943;51.410;7.564;2023-10-13T04:38:07;9.68;;;6.57;;
46222;SDS011;31943;51.410;7.564;2023-10-13T04:40:33;8.52;;;6.18;;
46222;SDS011;31943;51.410;7.564;2023-10-13T04:42:58;7.78;;;6.93;;
46222;SDS011;31943;51.410;7.564;2023-10-13T04:45:24;9.20;;;6.57;;
46222;SDS011;31943;51.410;7.564;2023-10-13T04:47:51;11.80;;;7.07;;
46222;SDS011;31943;51.410;7.564;2023-10-13T04:50:17;14.02;;;6.40;;
46222;SDS011;31943;51.410;7.564;2023-10-13T04:52:42;7.15;;;6.45;;
46222;SDS011;31943;51.410;7.564;2023-10-13T04:55:08;10.73;;;6.70;;
46222;SDS011;31943;51.410;7.564;2023-10-13T04:57:34;9.27;;;6.65;;
46222;SDS011;31943;51.410;7.564;2023-10-13T05:00:01;10.63;;;7.35;;
46222;SDS011;31943;51.410;7.564;2023-10-13T05:02:29;7.80;;;6.80;;
46222;SDS011;31943;51.410;7.564;2023-10-13T05:04:57;9.52;;;6.20;;
46222;SDS011;31943;51.410;7.564;2023-10-13T05:07:23;8.48;;;5.97;;
46222;SDS011;31943;51.410;7.564;2023-10-13T05:09:48;7.93;;;6.47;;
46222;SDS011;31943;51.410;7.564;2023-10-13T05:12:14;12.13;;;6.45;;
46222;SDS011;31943;51.410;7.564;2023-10-13T05:14:40;8.57;;;7.00;;
46222;SDS011;31943;51.410;7.564;2023-10-13T05:17:05;8.63;;;6.53;;
46222;SDS011;31943;51.410;7.564;2023-10-13T05:19:31;7.55;;;6.30;;
46222;SDS011;31943;51.410;7.564;2023-10-13T05:21:58;9.85;;;6.68;;
46222;SDS011;31943;51.410;7.564;2023-10-13T05:24:24;9.43;;;6.63;;
46222;SDS011;31943;51.410;7.564;2023-10-13T05:26:51;8.43;;;6.38;;
46222;SDS011;31943;51.410;7.564;2023-10-13T05:29:17;11.10;;;6.63;;
46222;SDS011;31943;51.410;7.564;2023-10-13T05:31:42;11.98;;;6.82;;
46222;SDS011;31943;51.410;7.564;2023-10-13T05:34:08;12.00;;;6.93;;
46222;SDS011;31943;51.410;7.564;2023-10-13T05:36:34;8.57;;;6.72;;
46222;SDS011;31943;51.410;7.564;2023-10-13T05:39:01;10.48;;;7.25;;
46222;SDS011;31943;51.410;7.564;2023-10-13T05:41:27;7.68;;;6.13;;
46222;SDS011;31943;51.410;7.564;2023-10-13T05:43:52;9.32;;;6.90;;
46222;SDS011;31943;51.410;7.564;2023-10-13T05:46:18;10.13;;;6.40;;
46222;SDS011;31943;51.410;7.564;2023-10-13T05:48:43;7.90;;;5.82;;
46222;SDS011;31943;51.410;7.564;2023-10-13T05:51:09;9.05;;;5.88;;
46222;SDS011;31943;51.410;7.564;2023-10-13T05:53:34;7.53;;;6.38;;
46222;SDS011;31943;51.410;7.564;2023-10-13T05:56:03;9.75;;;6.68;;
46222;SDS011;31943;51.410;7.564;2023-10-13T05:58:29;8.68;;;6.40;;
46222;SDS011;31943;51.410;7.564;2023-10-13T06:00:54;10.20;;;6.63;;
46222;SDS011;31943;51.410;7.564;2023-10-13T06:03:20;8.43;;;5.85;;
46222;SDS011;31943;51.410;7.564;2023-10-13T06:05:47;9.02;;;6.07;;
46222;SDS011;31943;51.410;7.564;2023-10-13T06:08:13;10.73;;;5.47;;
46222;SDS011;31943;51.410;7.564;2023-10-13T06:10:38;8.48;;;6.63;;
46222;SDS011;31943;51.410;7.564;2023-10-13T06:13:06;7.07;;;5.50;;
46222;SDS011;31943;51.410;7.564;2023-10-13T06:15:35;8.30;;;6.03;;
46222;SDS011;31943;51.410;7.564;2023-10-13T06:18:01;11.88;;;5.63;;
46222;SDS011;31943;51.410;7.564;2023-10-13T06:20:26;11.05;;;5.50;;
46222;SDS011;31943;51.410;7.564;2023-10-13T06:22:52;8.15;;;5.07;;
46222;SDS011;31943;51.410;7.564;2023-10-13T06:25:18;9.35;;;5.35;;
46222;SDS011;31943;51.410;7.564;2023-10-13T06:27:44;8.52;;;4.57;;
46222;SDS011;31943;51.410;7.564;2023-10-13T06:30:11;7.22;;;4.88;;
46222;SDS011;31943;51.410;7.564;2023-10-13T06:32:37;8.55;;;5.00;;
46222;SDS011;31943;51.410;7.564;2023-10-13T06:35:03;7.95;;;4.70;;
46222;SDS011;31943;51.410;7.564;2023-10-13T06:37:29;6.30;;;4.43;;
46222;SDS011;31943;51.410;7.564;2023-10-13T06:39:55;6.15;;;4.40;;
46222;SDS011;31943;51.410;7.564;2023-10-13T06:42:22;6.78;;;4.43;;
46222;SDS011;31943;51.410;7.564;2023-10-13T06:44:48;7.35;;;4.47;;
46222;SDS011;31943;51.410;7.564;2023-10-13T06:47:15;5.40;;;4.80;;
46222;SDS011;31943;51.410;7.564;2023-10-13T06:49:41;8.02;;;4.28;;
46222;SDS011;31943;51.410;7.564;2023-10-13T06:52:10;6.10;;;3.92;;
46222;SDS011;31943;51.410;7.564;2023-10-13T06:54:36;7.00;;;4.25;;
46222;SDS011;31943;51.410;7.564;2023-10-13T06:57:01;8.27;;;4.07;;
46222;SDS011;31943;51.410;7.564;2023-10-13T06:59:27;5.03;;;4.22;;
46222;SDS011;31943;51.410;7.564;2023-10-13T07:01:53;6.13;;;4.00;;
46222;SDS011;31943;51.410;7.564;2023-10-13T07:04:27;7.32;;;3.67;;
46222;SDS011;31943;51.410;7.564;2023-10-13T07:06:55;6.05;;;3.90;;
46222;SDS011;31943;51.410;7.564;2023-10-13T07:09:21;4.82;;;3.92;;
46222;SDS011;31943;51.410;7.564;2023-10-13T07:11:47;6.97;;;4.38;;
46222;SDS011;31943;51.410;7.564;2023-10-13T07:14:13;5.80;;;4.50;;
46222;SDS011;31943;51.410;7.564;2023-10-13T07:16:54;6.85;;;4.25;;
46222;SDS011;31943;51.410;7.564;2023-10-13T07:19:22;8.00;;;4.40;;
46222;SDS011;31943;51.410;7.564;2023-10-13T07:21:48;8.80;;;4.80;;
46222;SDS011;31943;51.410;7.564;2023-10-13T07:24:14;10.63;;;5.07;;
46222;SDS011;31943;51.410;7.564;2023-10-13T07:26:40;6.60;;;4.82;;
46222;SDS011;31943;51.410;7.564;2023-10-13T07:29:05;9.38;;;5.45;;
46222;SDS011;31943;51.410;7.564;2023-10-13T07:31:31;9.40;;;5.20;;
46222;SDS011;31943;51.410;7.564;2023-10-13T07:33:57;8.15;;;5.22;;
46222;SDS011;31943;51.410;7.564;2023-10-13T07:36:24;11.27;;;5.38;;
46222;SDS011;31943;51.410;7.564;2023-10-13T07:38:49;10.35;;;5.00;;
46222;SDS011;31943;51.410;7.564;2023-10-13T07:41:15;10.98;;;5.25;;
46222;SDS011;31943;51.410;7.564;2023-10-13T07:43:41;13.75;;;5.63;;
46222;SDS011;31943;51.410;7.564;2023-10-13T07:46:07;12.13;;;5.90;;
46222;SDS011;31943;51.410;7.564;2023-10-13T07:48:32;12.20;;;6.03;;
46222;SDS011;31943;51.410;7.564;2023-10-13T07:50:58;13.07;;;5.82;;
46222;SDS011;31943;51.410;7.564;2023-10-13T07:53:26;11.15;;;5.30;;
46222;SDS011;31943;51.410;7.564;2023-10-13T07:55:52;12.02;;;5.78;;
46222;SDS011;31943;51.410;7.564;2023-10-13T07:58:18;11.90;;;5.60;;
46222;SDS011;31943;51.410;7.564;2023-10-13T08:00:44;12.50;;;5.35;;
46222;SDS011;31943;51.410;7.564;2023-10-13T08:03:09;11.15;;;5.35;;
46222;SDS011;31943;51.410;7.564;2023-10-13T08:05:35;11.18;;;5.40;;
46222;SDS011;31943;51.410;7.564;2023-10-13T08:08:03;13.82;;;5.65;;
46222;SDS011;31943;51.410;7.564;2023-10-13T08:10:37;12.90;;;5.25;;
46222;SDS011;31943;51.410;7.564;2023-10-13T08:13:03;10.02;;;5.45;;
46222;SDS011;31943;51.410;7.564;2023-10-13T08:15:28;11.43;;;4.82;;
46222;SDS011;31943;51.410;7.564;2023-10-13T08:17:55;9.75;;;5.25;;
46222;SDS011;31943;51.410;7.564;2023-10-13T08:20:22;11.35;;;5.60;;
46222;SDS011;31943;51.410;7.564;2023-10-13T08:22:48;11.50;;;4.35;;
46222;SDS011;31943;51.410;7.564;2023-10-13T08:25:14;13.60;;;5.63;;
46222;SDS011;31943;51.410;7.564;2023-10-13T08:27:42;15.52;;;5.53;;
46222;SDS011;31943;51.410;7.564;2023-10-13T08:30:08;13.43;;;5.20;;
46222;SDS011;31943;51.410;7.564;2023-10-13T08:32:34;16.33;;;5.03;;
46222;SDS011;31943;51.410;7.564;2023-10-13T08:35:00;11.40;;;5.15;;
46222;SDS011;31943;51.410;7.564;2023-10-13T08:37:26;13.65;;;5.47;;
46222;SDS011;31943;51.410;7.564;2023-10-13T08:39:53;11.27;;;5.10;;
46222;SDS011;31943;51.410;7.564;2023-10-13T08:42:19;10.98;;;4.55;;
46222;SDS011;31943;51.410;7.564;2023-10-13T08:44:47;16.35;;;4.95;;
46222;SDS011;31943;51.410;7.564;2023-10-13T08:47:13;11.70;;;5.38;;
46222;SDS011;31943;51.410;7.564;2023-10-13T08:49:40;9.35;;;4.82;;
46222;SDS011;31943;51.410;7.564;2023-10-13T08:52:10;11.73;;;5.20;;
46222;SDS011;31943;51.410;7.564;2023-10-13T08:54:40;14.73;;;4.75;;
46222;SDS011;31943;51.410;7.564;2023-10-13T08:57:06;11.38;;;4.70;;
46222;SDS011;31943;51.410;7.564;2023-10-13T08:59:32;11.52;;;5.05;;
46222;SDS011;31943;51.410;7.564;2023-10-13T09:02:01;12.77;;;4.40;;
46222;SDS011;31943;51.410;7.564;2023-10-13T09:04:26;12.70;;;5.00;;
46222;SDS011;31943;51.410;7.564;2023-10-13T09:06:55;11.40;;;4.30;;
46222;SDS011;31943;51.410;7.564;2023-10-13T09:09:22;13.25;;;5.03;;
46222;SDS011;31943;51.410;7.564;2023-10-13T09:11:48;11.80;;;4.72;;
46222;SDS011;31943;51.410;7.564;2023-10-13T09:14:13;11.95;;;4.45;;
46222;SDS011;31943;51.410;7.564;2023-10-13T09:16:39;11.45;;;4.38;;
46222;SDS011;31943;51.410;7.564;2023-10-13T09:19:06;11.27;;;4.38;;
46222;SDS011;31943;51.410;7.564;2023-10-13T09:21:37;9.02;;;4.38;;
46222;SDS011;31943;51.410;7.564;2023-10-13T09:24:03;11.02;;;5.00;;
46222;SDS011;31943;51.410;7.564;2023-10-13T09:26:33;13.98;;;4.45;;
46222;SDS011;31943;51.410;7.564;2023-10-13T09:28:59;13.68;;;4.80;;
46222;SDS011;31943;51.410;7.564;2023-10-13T09:31:24;15.32;;;4.45;;
46222;SDS011;31943;51.410;7.564;2023-10-13T09:33:50;11.30;;;5.07;;
46222;SDS011;31943;51.410;7.564;2023-10-13T09:36:17;11.15;;;4.72;;
46222;SDS011;31943;51.410;7.564;2023-10-13T09:38:43;12.30;;;4.40;;
46222;SDS011;31943;51.410;7.564;2023-10-13T09:41:08;13.25;;;4.40;;
46222;SDS011;31943;51.410;7.564;2023-10-13T09:43:34;11.27;;;4.10;;
46222;SDS011;31943;51.410;7.564;2023-10-13T09:46:00;13.23;;;4.45;;
46222;SDS011;31943;51.410;7.564;2023-10-13T09:50:54;13.00;;;4.60;;
46222;SDS011;31943;51.410;7.564;2023-10-13T09:53:29;14.25;;;4.88;;
46222;SDS011;31943;51.410;7.564;2023-10-13T09:55:58;8.35;;;4.22;;
46222;SDS011;31943;51.410;7.564;2023-10-13T09:58:28;9.00;;;4.85;;
46222;SDS011;31943;51.410;7.564;2023-10-13T10:00:56;12.32;;;4.50;;
46222;SDS011;31943;51.410;7.564;2023-10-13T10:03:25;9.50;;;4.70;;
46222;SDS011;31943;51.410;7.564;2023-10-13T10:05:54;10.15;;;4.82;;
46222;SDS011;31943;51.410;7.564;2023-10-13T10:08:23;13.43;;;5.20;;
46222;SDS011;31943;51.410;7.564;2023-10-13T10:10:55;10.25;;;4.80;;
46222;SDS011;31943;51.410;7.564;2023-10-13T10:13:26;9.27;;;4.45;;
46222;SDS011;31943;51.410;7.564;2023-10-13T10:16:00;9.05;;;4.57;;
46222;SDS011;31943;51.410;7.564;2023-10-13T10:18:34;10.65;;;4.75;;
46222;SDS011;31943;51.410;7.564;2023-10-13T10:21:03;8.90;;;4.75;;
46222;SDS011;31943;51.410;7.564;2023-10-13T10:23:29;9.52;;;4.28;;
46222;SDS011;31943;51.410;7.564;2023-10-13T10:25:57;12.65;;;4.80;;
46222;SDS011;31943;51.410;7.564;2023-10-13T10:28:22;10.02;;;5.18;;
46222;SDS011;31943;51.410;7.564;2023-10-13T10:30:48;12.00;;;4.55;;
46222;SDS011;31943;51.410;7.564;2023-10-13T10:33:13;9.30;;;4.35;;
46222;SDS011;31943;51.410;7.564;2023-10-13T10:35:39;10.27;;;5.35;;
46222;SDS011;31943;51.410;7.564;2023-10-13T10:38:09;12.10;;;4.50;;
46222;SDS011;31943;51.410;7.564;2023-10-13T10:40:37;13.43;;;5.00;;
46222;SDS011;31943;51.410;7.564;2023-10-13T10:43:16;9.63;;;5.13;;
46222;SDS011;31943;51.410;7.564;2023-10-13T10:45:45;10.38;;;4.72;;
46222;SDS011;31943;51.410;7.564;2023-10-13T10:48:11;13.30;;;5.45;;
46222;SDS011;31943;51.410;7.564;2023-10-13T10:50:37;10.40;;;4.95;;
46222;SDS011;31943;51.410;7.564;2023-10-13T10:53:04;10.75;;;5.40;;
46222;SDS011;31943;51.410;7.564;2023-10-13T10:55:30;12.73;;;5.75;;
46222;SDS011;31943;51.410;7.564;2023-10-13T10:57:58;12.20;;;5.32;;
46222;SDS011;31943;51.410;7.564;2023-10-13T11:00:27;8.57;;;5.43;;
46222;SDS011;31943;51.410;7.564;2023-10-13T11:02:53;12.30;;;5.35;;
46222;SDS011;31943;51.410;7.564;2023-10-13T11:05:19;8.95;;;5.07;;
46222;SDS011;31943;51.410;7.564;2023-10-13T11:07:46;12.40;;;5.43;;
46222;SDS011;31943;51.410;7.564;2023-10-13T11:10:12;10.25;;;4.82;;
46222;SDS011;31943;51.410;7.564;2023-10-13T11:12:38;7.88;;;5.15;;
46222;SDS011;31943;51.410;7.564;2023-10-13T11:15:04;12.25;;;5.60;;
46222;SDS011;31943;51.410;7.564;2023-10-13T11:17:34;13.30;;;5.80;;
46222;SDS011;31943;51.410;7.564;2023-10-13T11:20:07;9.98;;;5.45;;
46222;SDS011;31943;51.410;7.564;2023-10-13T11:22:36;9.35;;;5.03;;
46222;SDS011;31943;51.410;7.564;2023-10-13T11:25:02;10.02;;;5.28;;
46222;SDS011;31943;51.410;7.564;2023-10-13T11:27:29;9.55;;;5.13;;
46222;SDS011;31943;51.410;7.564;2023-10-13T11:29:55;9.27;;;5.30;;
46222;SDS011;31943;51.410;7.564;2023-10-13T11:32:21;11.13;;;5.18;;
46222;SDS011;31943;51.410;7.564;2023-10-13T11:34:48;10.02;;;5.90;;
46222;SDS011;31943;51.410;7.564;2023-10-13T11:37:14;11.80;;;5.75;;
46222;SDS011;31943;51.410;7.564;2023-10-13T11:39:39;13.77;;;5.65;;
46222;SDS011;31943;51.410;7.564;2023-10-13T11:42:07;8.73;;;5.03;;
46222;SDS011;31943;51.410;7.564;2023-10-13T11:44:34;11.95;;;5.70;;
46222;SDS011;31943;51.410;7.564;2023-10-13T11:47:01;7.65;;;5.60;;
46222;SDS011;31943;51.410;7.564;2023-10-13T11:49:27;12.48;;;5.60;;
46222;SDS011;31943;51.410;7.564;2023-10-13T11:51:55;14.70;;;5.50;;
46222;SDS011;31943;51.410;7.564;2023-10-13T11:54:22;8.30;;;5.15;;
46222;SDS011;31943;51.410;7.564;2023-10-13T11:56:48;9.85;;;5.13;;
46222;SDS011;31943;51.410;7.564;2023-10-13T11:59:14;10.70;;;5.68;;
46222;SDS011;31943;51.410;7.564;2023-10-13T12:01:42;9.60;;;5.43;;
46222;SDS011;31943;51.410;7.564;2023-10-13T12:04:09;10.27;;;5.07;;
46222;SDS011;31943;51.410;7.564;2023-10-13T12:06:35;11.35;;;5.20;;
46222;SDS011;31943;51.410;7.564;2023-10-13T12:09:03;11.20;;;5.00;;
46222;SDS011;31943;51.410;7.564;2023-10-13T12:11:29;11.07;;;5.25;;
46222;SDS011;31943;51.410;7.564;2023-10-13T12:13:55;10.20;;;5.18;;
46222;SDS011;31943;51.410;7.564;2023-10-13T12:16:21;9.25;;;5.13;;
46222;SDS011;31943;51.410;7.564;2023-10-13T12:18:47;10.02;;;5.70;;
46222;SDS011;31943;51.410;7.564;2023-10-13T12:21:13;9.80;;;5.43;;
46222;SDS011;31943;51.410;7.564;2023-10-13T12:23:39;11.40;;;5.63;;
46222;SDS011;31943;51.410;7.564;2023-10-13T12:26:06;11.35;;;5.20;;
46222;SDS011;31943;51.410;7.564;2023-10-13T12:28:33;12.52;;;5.75;;
46222;SDS011;31943;51.410;7.564;2023-10-13T12:31:03;9.93;;;5.80;;
46222;SDS011;31943;51.410;7.564;2023-10-13T12:33:29;11.10;;;5.68;;
46222;SDS011;31943;51.410;7.564;2023-10-13T12:35:55;14.68;;;5.80;;
46222;SDS011;31943;51.410;7.564;2023-10-13T12:38:22;13.23;;;5.47;;
46222;SDS011;31943;51.410;7.564;2023-10-13T12:40:48;11.93;;;5.10;;
46222;SDS011;31943;51.410;7.564;2023-10-13T12:43:16;9.82;;;5.55;;
46222;SDS011;31943;51.410;7.564;2023-10-13T12:45:42;7.95;;;5.38;;
46222;SDS011;31943;51.410;7.564;2023-10-13T12:48:10;6.53;;;4.50;;
46222;SDS011;31943;51.410;7.564;2023-10-13T12:50:37;12.23;;;6.00;;
46222;SDS011;31943;51.410;7.564;2023-10-13T12:53:02;8.38;;;5.68;;
46222;SDS011;31943;51.410;7.564;2023-10-13T12:55:28;11.15;;;5.25;;
46222;SDS011;31943;51.410;7.564;2023-10-13T12:57:54;10.55;;;5.30;;
46222;SDS011;31943;51.410;7.564;2023-10-13T13:00:22;6.85;;;4.75;;
46222;SDS011;31943;51.410;7.564;2023-10-13T13:02:47;9.70;;;5.85;;
46222;SDS011;31943;51.410;7.564;2023-10-13T13:05:13;10.63;;;5.45;;
46222;SDS011;31943;51.410;7.564;2023-10-13T13:07:39;10.27;;;5.13;;
46222;SDS011;31943;51.410;7.564;2023-10-13T13:10:05;13.68;;;5.70;;
46222;SDS011;31943;51.410;7.564;2023-10-13T13:12:31;11.02;;;5.25;;
46222;SDS011;31943;51.410;7.564;2023-10-13T13:14:57;12.38;;;5.13;;
46222;SDS011;31943;51.410;7.564;2023-10-13T13:17:24;11.55;;;4.65;;
46222;SDS011;31943;51.410;7.564;2023-10-13T13:19:50;7.63;;;4.95;;
46222;SDS011;31943;51.410;7.564;2023-10-13T13:22:15;8.05;;;5.03;;
46222;SDS011;31943;51.410;7.564;2023-10-13T13:24:43;10.20;;;4.82;;
46222;SDS011;31943;51.410;7.564;2023-10-13T13:27:09;14.65;;;5.45;;
46222;SDS011;31943;51.410;7.564;2023-10-13T13:29:35;9.38;;;4.65;;
46222;SDS011;31943;51.410;7.564;2023-10-13T13:32:01;10.88;;;5.60;;
46222;SDS011;31943;51.410;7.564;2023-10-13T13:34:29;10.82;;;5.20;;
46222;SDS011;31943;51.410;7.564;2023-10-13T13:36:56;11.63;;;4.25;;
46222;SDS011;31943;51.410;7.564;2023-10-13T13:39:22;10.23;;;5.03;;
46222;SDS011;31943;51.410;7.564;2023-10-13T13:41:48;11.27;;;4.70;;
46222;SDS011;31943;51.410;7.564;2023-10-13T13:44:13;14.13;;;5.20;;
46222;SDS011;31943;51.410;7.564;2023-10-13T13:46:39;15.50;;;4.93;;
46222;SDS011;31943;51.410;7.564;2023-10-13T13:49:05;12.48;;;5.55;;
46222;SDS011;31943;51.410;7.564;2023-10-13T13:51:32;12.40;;;4.85;;
46222;SDS011;31943;51.410;7.564;2023-10-13T13:53:58;9.75;;;4.95;;
46222;SDS011;31943;51.410;7.564;2023-10-13T13:56:24;12.85;;;4.75;;
46222;SDS011;31943;51.410;7.564;2023-10-13T13:58:50;9.93;;;4.75;;
46222;SDS011;31943;51.410;7.564;2023-10-13T14:01:16;17.67;;;5.28;;
46222;SDS011;31943;51.410;7.564;2023-10-13T14:03:42;10.90;;;5.20;;
46222;SDS011;31943;51.410;7.564;2023-10-13T14:06:09;15.77;;;5.38;;
46222;SDS011;31943;51.410;7.564;2023-10-13T14:08:36;12.13;;;4.80;;
46222;SDS011;31943;51.410;7.564;2023-10-13T14:11:02;13.38;;;5.43;;
46222;SDS011;31943;51.410;7.564;2023-10-13T14:13:27;9.13;;;4.43;;
46222;SDS011;31943;51.410;7.564;2023-10-13T14:15:53;14.40;;;5.03;;
46222;SDS011;31943;51.410;7.564;2023-10-13T14:18:18;11.52;;;4.95;;
46222;SDS011;31943;51.410;7.564;2023-10-13T14:20:44;11.48;;;4.53;;
46222;SDS011;31943;51.410;7.564;2023-10-13T14:23:12;12.32;;;4.53;;
46222;SDS011;31943;51.410;7.564;2023-10-13T14:25:40;14.02;;;4.90;;
46222;SDS011;31943;51.410;7.564;2023-10-13T14:28:07;11.38;;;4.38;;
46222;SDS011;31943;51.410;7.564;2023-10-13T14:30:32;10.23;;;4.57;;
46222;SDS011;31943;51.410;7.564;2023-10-13T14:32:58;13.45;;;4.53;;
46222;SDS011;31943;51.410;7.564;2023-10-13T14:35:24;13.35;;;4.97;;
46222;SDS011;31943;51.410;7.564;2023-10-13T14:37:50;11.13;;;5.03;;